sensor_id;sensor_type;location;lat;lon;timestamp;P1;durP1;ratioP1;P2;durP2;ratioP2
66264;SDS011;53055;44.648;21.148;2023-02-15T00:01:16;46.25;;;36.70;;
66264;SDS011;53055;44.648;21.148;2023-02-15T00:03:42;42.13;;;36.50;;
66264;SDS011;53055;44.648;21.148;2023-02-15T00:06:08;44.83;;;36.15;;
66264;SDS011;53055;44.648;21.148;2023-02-15T00:08:34;46.17;;;37.28;;
66264;SDS011;53055;44.648;21.148;2023-02-15T00:11:04;43.63;;;36.75;;
66264;SDS011;53055;44.648;21.148;2023-02-15T00:13:30;47.38;;;37.67;;
66264;SDS011;53055;44.648;21.148;2023-02-15T00:16:00;44.58;;;35.92;;
66264;SDS011;53055;44.648;21.148;2023-02-15T00:18:26;44.45;;;35.55;;
66264;SDS011;53055;44.648;21.148;2023-02-15T00:20:52;44.53;;;36.38;;
66264;SDS011;53055;44.648;21.148;2023-02-15T00:23:18;44.90;;;36.20;;
66264;SDS011;53055;44.648;21.148;2023-02-15T00:25:44;44.58;;;36.42;;
66264;SDS011;53055;44.648;21.148;2023-02-15T00:28:10;42.35;;;34.90;;
66264;SDS011;53055;44.648;21.148;2023-02-15T00:30:36;42.85;;;34.35;;
66264;SDS011;53055;44.648;21.148;2023-02-15T00:33:03;42.25;;;34.55;;
66264;SDS011;53055;44.648;21.148;2023-02-15T00:35:29;42.97;;;34.78;;
66264;SDS011;53055;44.648;21.148;2023-02-15T00:37:55;42.58;;;34.80;;
66264;SDS011;53055;44.648;21.148;2023-02-15T00:40:21;42.50;;;35.25;;
66264;SDS011;53055;44.648;21.148;2023-02-15T00:42:47;42.95;;;33.25;;
66264;SDS011;53055;44.648;21.148;2023-02-15T00:45:13;40.60;;;33.63;;
66264;SDS011;53055;44.648;21.148;2023-02-15T00:47:40;42.78;;;35.28;;
66264;SDS011;53055;44.648;21.148;2023-02-15T00:50:06;44.00;;;33.20;;
66264;SDS011;53055;44.648;21.148;2023-02-15T00:52:32;43.53;;;34.38;;
66264;SDS011;53055;44.648;21.148;2023-02-15T00:54:58;43.30;;;34.60;;
66264;SDS011;53055;44.648;21.148;2023-02-15T00:57:24;43.15;;;35.65;;
66264;SDS011;53055;44.648;21.148;2023-02-15T00:59:50;41.35;;;34.17;;
66264;SDS011;53055;44.648;21.148;2023-02-15T01:02:16;41.83;;;35.92;;
66264;SDS011;53055;44.648;21.148;2023-02-15T01:04:42;41.75;;;34.13;;
66264;SDS011;53055;44.648;21.148;2023-02-15T01:07:08;45.03;;;36.38;;
66264;SDS011;53055;44.648;21.148;2023-02-15T01:09:34;43.53;;;35.05;;
66264;SDS011;53055;44.648;21.148;2023-02-15T01:12:00;44.45;;;35.92;;
66264;SDS011;53055;44.648;21.148;2023-02-15T01:14:26;47.30;;;37.72;;
66264;SDS011;53055;44.648;21.148;2023-02-15T01:16:52;45.45;;;36.35;;
66264;SDS011;53055;44.648;21.148;2023-02-15T01:19:18;45.83;;;34.70;;
66264;SDS011;53055;44.648;21.148;2023-02-15T01:21:44;45.17;;;35.58;;
66264;SDS011;53055;44.648;21.148;2023-02-15T01:24:14;43.70;;;35.83;;
66264;SDS011;53055;44.648;21.148;2023-02-15T01:26:40;48.13;;;38.05;;
66264;SDS011;53055;44.648;21.148;2023-02-15T01:29:06;47.05;;;35.97;;
66264;SDS011;53055;44.648;21.148;2023-02-15T01:31:32;55.65;;;41.90;;
66264;SDS011;53055;44.648;21.148;2023-02-15T01:33:58;45.28;;;35.45;;
66264;SDS011;53055;44.648;21.148;2023-02-15T01:36:24;45.53;;;35.63;;
66264;SDS011;53055;44.648;21.148;2023-02-15T01:38:50;52.63;;;40.90;;
66264;SDS011;53055;44.648;21.148;2023-02-15T01:41:16;47.00;;;35.97;;
66264;SDS011;53055;44.648;21.148;2023-02-15T01:43:46;56.55;;;43.78;;
66264;SDS011;53055;44.648;21.148;2023-02-15T01:46:14;52.03;;;39.30;;
66264;SDS011;53055;44.648;21.148;2023-02-15T01:48:43;50.05;;;41.42;;
66264;SDS011;53055;44.648;21.148;2023-02-15T01:51:10;44.78;;;36.65;;
66264;SDS011;53055;44.648;21.148;2023-02-15T01:56:23;44.33;;;34.95;;
66264;SDS011;53055;44.648;21.148;2023-02-15T01:58:51;45.88;;;35.85;;
66264;SDS011;53055;44.648;21.148;2023-02-15T02:01:17;43.33;;;34.05;;
66264;SDS011;53055;44.648;21.148;2023-02-15T02:03:59;47.40;;;37.85;;
66264;SDS011;53055;44.648;21.148;2023-02-15T02:06:27;43.03;;;35.53;;
66264;SDS011;53055;44.648;21.148;2023-02-15T02:08:54;42.72;;;35.63;;
66264;SDS011;53055;44.648;21.148;2023-02-15T02:11:21;41.83;;;35.05;;
66264;SDS011;53055;44.648;21.148;2023-02-15T02:13:48;45.00;;;36.42;;
66264;SDS011;53055;44.648;21.148;2023-02-15T02:16:19;40.97;;;33.92;;
66264;SDS011;53055;44.648;21.148;2023-02-15T02:29:01;42.58;;;34.17;;
66264;SDS011;53055;44.648;21.148;2023-02-15T02:39:20;42.20;;;34.30;;
66264;SDS011;53055;44.648;21.148;2023-02-15T02:44:41;40.13;;;33.42;;
66264;SDS011;53055;44.648;21.148;2023-02-15T02:47:28;43.95;;;34.83;;
66264;SDS011;53055;44.648;21.148;2023-02-15T02:50:03;45.72;;;36.35;;
66264;SDS011;53055;44.648;21.148;2023-02-15T02:55:51;57.20;;;45.38;;
66264;SDS011;53055;44.648;21.148;2023-02-15T03:00:21;43.53;;;35.92;;
66264;SDS011;53055;44.648;21.148;2023-02-15T03:02:50;49.03;;;38.72;;
66264;SDS011;53055;44.648;21.148;2023-02-15T03:05:18;43.75;;;36.17;;
66264;SDS011;53055;44.648;21.148;2023-02-15T03:07:46;44.80;;;35.10;;
66264;SDS011;53055;44.648;21.148;2023-02-15T03:10:13;42.97;;;36.78;;
66264;SDS011;53055;44.648;21.148;2023-02-15T03:12:39;39.88;;;33.65;;
66264;SDS011;53055;44.648;21.148;2023-02-15T03:17:35;41.03;;;32.53;;
66264;SDS011;53055;44.648;21.148;2023-02-15T03:20:04;46.15;;;36.92;;
66264;SDS011;53055;44.648;21.148;2023-02-15T03:22:36;43.33;;;34.40;;
66264;SDS011;53055;44.648;21.148;2023-02-15T03:25:06;39.08;;;32.53;;
66264;SDS011;53055;44.648;21.148;2023-02-15T03:27:36;44.20;;;34.58;;
66264;SDS011;53055;44.648;21.148;2023-02-15T03:30:03;42.10;;;35.50;;
66264;SDS011;53055;44.648;21.148;2023-02-15T03:32:31;43.30;;;36.35;;
66264;SDS011;53055;44.648;21.148;2023-02-15T03:34:58;41.25;;;35.08;;
66264;SDS011;53055;44.648;21.148;2023-02-15T03:39:58;40.95;;;33.55;;
66264;SDS011;53055;44.648;21.148;2023-02-15T03:42:45;42.08;;;34.50;;
66264;SDS011;53055;44.648;21.148;2023-02-15T03:45:15;45.35;;;35.53;;
66264;SDS011;53055;44.648;21.148;2023-02-15T03:47:44;44.72;;;36.25;;
66264;SDS011;53055;44.648;21.148;2023-02-15T03:50:22;42.05;;;35.17;;
66264;SDS011;53055;44.648;21.148;2023-02-15T03:53:09;40.00;;;32.78;;
66264;SDS011;53055;44.648;21.148;2023-02-15T03:55:37;39.78;;;32.05;;
66264;SDS011;53055;44.648;21.148;2023-02-15T03:58:03;44.20;;;37.97;;
66264;SDS011;53055;44.648;21.148;2023-02-15T04:00:59;44.65;;;39.20;;
66264;SDS011;53055;44.648;21.148;2023-02-15T04:04:01;39.70;;;33.65;;
66264;SDS011;53055;44.648;21.148;2023-02-15T04:06:28;41.42;;;34.17;;
66264;SDS011;53055;44.648;21.148;2023-02-15T04:08:54;43.22;;;35.08;;
66264;SDS011;53055;44.648;21.148;2023-02-15T04:11:39;43.10;;;35.20;;
66264;SDS011;53055;44.648;21.148;2023-02-15T04:14:05;48.33;;;39.60;;
66264;SDS011;53055;44.648;21.148;2023-02-15T04:16:50;38.28;;;31.30;;
66264;SDS011;53055;44.648;21.148;2023-02-15T04:19:16;37.35;;;30.65;;
66264;SDS011;53055;44.648;21.148;2023-02-15T04:22:00;39.90;;;32.05;;
66264;SDS011;53055;44.648;21.148;2023-02-15T04:24:45;40.00;;;32.50;;
66264;SDS011;53055;44.648;21.148;2023-02-15T04:27:29;35.13;;;28.75;;
66264;SDS011;53055;44.648;21.148;2023-02-15T04:29:56;46.17;;;35.30;;
66264;SDS011;53055;44.648;21.148;2023-02-15T04:32:22;57.50;;;42.15;;
66264;SDS011;53055;44.648;21.148;2023-02-15T04:34:48;38.83;;;32.90;;
66264;SDS011;53055;44.648;21.148;2023-02-15T04:37:14;35.35;;;30.50;;
66264;SDS011;53055;44.648;21.148;2023-02-15T04:39:40;34.28;;;29.48;;
66264;SDS011;53055;44.648;21.148;2023-02-15T04:42:06;36.00;;;31.02;;
66264;SDS011;53055;44.648;21.148;2023-02-15T04:44:32;34.33;;;30.00;;
66264;SDS011;53055;44.648;21.148;2023-02-15T04:46:58;35.63;;;29.90;;
66264;SDS011;53055;44.648;21.148;2023-02-15T04:49:24;35.22;;;29.33;;
66264;SDS011;53055;44.648;21.148;2023-02-15T04:51:50;36.47;;;29.27;;
66264;SDS011;53055;44.648;21.148;2023-02-15T04:54:16;36.78;;;30.20;;
66264;SDS011;53055;44.648;21.148;2023-02-15T04:56:42;35.15;;;29.35;;
66264;SDS011;53055;44.648;21.148;2023-02-15T04:59:11;35.25;;;28.65;;
66264;SDS011;53055;44.648;21.148;2023-02-15T05:01:37;35.15;;;30.30;;
66264;SDS011;53055;44.648;21.148;2023-02-15T05:04:03;37.78;;;31.08;;
66264;SDS011;53055;44.648;21.148;2023-02-15T05:06:29;36.03;;;29.90;;
66264;SDS011;53055;44.648;21.148;2023-02-15T05:08:55;38.08;;;29.65;;
66264;SDS011;53055;44.648;21.148;2023-02-15T05:11:23;34.15;;;28.75;;
66264;SDS011;53055;44.648;21.148;2023-02-15T05:13:50;47.00;;;39.25;;
66264;SDS011;53055;44.648;21.148;2023-02-15T05:16:16;35.25;;;31.40;;
66264;SDS011;53055;44.648;21.148;2023-02-15T05:18:42;36.88;;;31.20;;
66264;SDS011;53055;44.648;21.148;2023-02-15T05:21:08;36.80;;;30.98;;
66264;SDS011;53055;44.648;21.148;2023-02-15T05:23:34;36.10;;;31.17;;
66264;SDS011;53055;44.648;21.148;2023-02-15T05:26:00;32.58;;;28.65;;
66264;SDS011;53055;44.648;21.148;2023-02-15T05:28:45;36.22;;;29.25;;
66264;SDS011;53055;44.648;21.148;2023-02-15T05:31:12;34.17;;;27.40;;
66264;SDS011;53055;44.648;21.148;2023-02-15T05:33:39;33.88;;;28.55;;
66264;SDS011;53055;44.648;21.148;2023-02-15T05:36:05;33.58;;;27.25;;
66264;SDS011;53055;44.648;21.148;2023-02-15T05:38:31;34.03;;;28.50;;
66264;SDS011;53055;44.648;21.148;2023-02-15T05:40:57;34.80;;;28.42;;
66264;SDS011;53055;44.648;21.148;2023-02-15T05:43:24;37.78;;;29.67;;
66264;SDS011;53055;44.648;21.148;2023-02-15T05:45:51;36.45;;;28.92;;
66264;SDS011;53055;44.648;21.148;2023-02-15T05:48:17;35.70;;;29.67;;
66264;SDS011;53055;44.648;21.148;2023-02-15T05:50:44;35.72;;;28.52;;
66264;SDS011;53055;44.648;21.148;2023-02-15T05:53:10;33.88;;;28.50;;
66264;SDS011;53055;44.648;21.148;2023-02-15T05:55:40;34.45;;;29.00;;
66264;SDS011;53055;44.648;21.148;2023-02-15T05:58:06;51.35;;;39.20;;
66264;SDS011;53055;44.648;21.148;2023-02-15T06:00:33;41.10;;;34.50;;
66264;SDS011;53055;44.648;21.148;2023-02-15T06:02:59;35.88;;;29.33;;
66264;SDS011;53055;44.648;21.148;2023-02-15T06:05:25;35.40;;;29.38;;
66264;SDS011;53055;44.648;21.148;2023-02-15T06:07:51;34.47;;;29.67;;
66264;SDS011;53055;44.648;21.148;2023-02-15T06:10:17;34.65;;;28.63;;
66264;SDS011;53055;44.648;21.148;2023-02-15T06:12:45;33.55;;;29.08;;
66264;SDS011;53055;44.648;21.148;2023-02-15T06:15:11;34.38;;;28.92;;
66264;SDS011;53055;44.648;21.148;2023-02-15T06:17:37;39.90;;;31.70;;
66264;SDS011;53055;44.648;21.148;2023-02-15T06:20:03;124.95;;;103.60;;
66264;SDS011;53055;44.648;21.148;2023-02-15T06:22:29;86.20;;;69.47;;
66264;SDS011;53055;44.648;21.148;2023-02-15T06:24:55;45.00;;;36.97;;
66264;SDS011;53055;44.648;21.148;2023-02-15T06:27:21;37.90;;;32.40;;
66264;SDS011;53055;44.648;21.148;2023-02-15T06:29:47;36.35;;;30.50;;
66264;SDS011;53055;44.648;21.148;2023-02-15T06:32:13;39.47;;;32.70;;
66264;SDS011;53055;44.648;21.148;2023-02-15T06:34:39;59.45;;;46.83;;
66264;SDS011;53055;44.648;21.148;2023-02-15T06:37:05;153.25;;;115.05;;
66264;SDS011;53055;44.648;21.148;2023-02-15T06:39:33;154.68;;;119.40;;
66264;SDS011;53055;44.648;21.148;2023-02-15T06:41:59;188.00;;;139.40;;
66264;SDS011;53055;44.648;21.148;2023-02-15T06:44:25;60.92;;;51.05;;
66264;SDS011;53055;44.648;21.148;2023-02-15T06:46:51;91.43;;;72.13;;
66264;SDS011;53055;44.648;21.148;2023-02-15T06:49:17;69.07;;;54.15;;
66264;SDS011;53055;44.648;21.148;2023-02-15T06:51:43;49.60;;;40.70;;
66264;SDS011;53055;44.648;21.148;2023-02-15T06:54:10;51.85;;;44.28;;
66264;SDS011;53055;44.648;21.148;2023-02-15T06:56:36;52.10;;;43.85;;
66264;SDS011;53055;44.648;21.148;2023-02-15T06:59:02;43.42;;;37.90;;
66264;SDS011;53055;44.648;21.148;2023-02-15T07:01:28;40.13;;;34.80;;
66264;SDS011;53055;44.648;21.148;2023-02-15T07:03:54;45.28;;;39.38;;
66264;SDS011;53055;44.648;21.148;2023-02-15T07:06:20;40.90;;;32.15;;
66264;SDS011;53055;44.648;21.148;2023-02-15T07:08:46;53.70;;;45.20;;
66264;SDS011;53055;44.648;21.148;2023-02-15T07:11:12;47.00;;;41.95;;
66264;SDS011;53055;44.648;21.148;2023-02-15T07:16:42;39.28;;;32.40;;
66264;SDS011;53055;44.648;21.148;2023-02-15T07:19:08;35.55;;;29.98;;
66264;SDS011;53055;44.648;21.148;2023-02-15T07:21:35;34.72;;;29.50;;
66264;SDS011;53055;44.648;21.148;2023-02-15T07:24:01;36.78;;;28.92;;
66264;SDS011;53055;44.648;21.148;2023-02-15T07:26:27;36.13;;;30.17;;
66264;SDS011;53055;44.648;21.148;2023-02-15T07:28:53;33.00;;;28.10;;
66264;SDS011;53055;44.648;21.148;2023-02-15T07:31:19;32.42;;;26.50;;
66264;SDS011;53055;44.648;21.148;2023-02-15T07:33:45;32.63;;;27.95;;
66264;SDS011;53055;44.648;21.148;2023-02-15T07:36:11;32.67;;;27.33;;
66264;SDS011;53055;44.648;21.148;2023-02-15T07:38:38;35.28;;;29.13;;
66264;SDS011;53055;44.648;21.148;2023-02-15T07:41:05;35.72;;;28.42;;
66264;SDS011;53055;44.648;21.148;2023-02-15T07:43:36;35.42;;;28.42;;
66264;SDS011;53055;44.648;21.148;2023-02-15T07:46:03;34.13;;;28.58;;
66264;SDS011;53055;44.648;21.148;2023-02-15T07:48:30;33.47;;;28.45;;
66264;SDS011;53055;44.648;21.148;2023-02-15T07:51:00;35.42;;;30.38;;
66264;SDS011;53055;44.648;21.148;2023-02-15T07:53:26;34.10;;;28.88;;
66264;SDS011;53055;44.648;21.148;2023-02-15T07:55:52;32.92;;;28.50;;
66264;SDS011;53055;44.648;21.148;2023-02-15T07:58:19;32.38;;;28.38;;
66264;SDS011;53055;44.648;21.148;2023-02-15T08:00:46;32.78;;;28.05;;
66264;SDS011;53055;44.648;21.148;2023-02-15T08:03:24;33.95;;;28.42;;
66264;SDS011;53055;44.648;21.148;2023-02-15T08:05:57;40.23;;;29.03;;
66264;SDS011;53055;44.648;21.148;2023-02-15T08:08:24;37.95;;;30.52;;
66264;SDS011;53055;44.648;21.148;2023-02-15T08:10:57;93.90;;;83.57;;
66264;SDS011;53055;44.648;21.148;2023-02-15T08:13:43;38.35;;;33.20;;
66264;SDS011;53055;44.648;21.148;2023-02-15T08:18:53;33.47;;;27.05;;
66264;SDS011;53055;44.648;21.148;2023-02-15T08:21:19;33.20;;;29.52;;
66264;SDS011;53055;44.648;21.148;2023-02-15T08:23:45;33.00;;;29.40;;
66264;SDS011;53055;44.648;21.148;2023-02-15T08:26:11;32.67;;;28.13;;
66264;SDS011;53055;44.648;21.148;2023-02-15T08:28:37;34.42;;;30.73;;
66264;SDS011;53055;44.648;21.148;2023-02-15T08:31:07;37.40;;;30.88;;
66264;SDS011;53055;44.648;21.148;2023-02-15T08:33:34;37.22;;;30.20;;
66264;SDS011;53055;44.648;21.148;2023-02-15T08:36:08;31.60;;;28.17;;
66264;SDS011;53055;44.648;21.148;2023-02-15T08:38:34;31.73;;;27.73;;
66264;SDS011;53055;44.648;21.148;2023-02-15T08:41:17;36.75;;;31.20;;
66264;SDS011;53055;44.648;21.148;2023-02-15T08:43:44;41.90;;;33.93;;
66264;SDS011;53055;44.648;21.148;2023-02-15T08:46:11;36.33;;;29.63;;
66264;SDS011;53055;44.648;21.148;2023-02-15T08:48:38;44.10;;;34.13;;
66264;SDS011;53055;44.648;21.148;2023-02-15T08:51:08;60.35;;;43.40;;
66264;SDS011;53055;44.648;21.148;2023-02-15T08:53:35;99.47;;;64.25;;
66264;SDS011;53055;44.648;21.148;2023-02-15T08:56:02;74.88;;;54.55;;
66264;SDS011;53055;44.648;21.148;2023-02-15T08:58:29;41.50;;;34.10;;
66264;SDS011;53055;44.648;21.148;2023-02-15T09:00:55;51.63;;;41.13;;
66264;SDS011;53055;44.648;21.148;2023-02-15T09:03:22;60.80;;;46.03;;
66264;SDS011;53055;44.648;21.148;2023-02-15T09:05:48;143.27;;;128.50;;
66264;SDS011;53055;44.648;21.148;2023-02-15T09:08:14;61.88;;;47.45;;
66264;SDS011;53055;44.648;21.148;2023-02-15T09:10:41;60.00;;;45.38;;
66264;SDS011;53055;44.648;21.148;2023-02-15T09:13:07;53.63;;;43.00;;
66264;SDS011;53055;44.648;21.148;2023-02-15T09:15:33;52.80;;;42.28;;
66264;SDS011;53055;44.648;21.148;2023-02-15T09:17:59;49.95;;;40.17;;
66264;SDS011;53055;44.648;21.148;2023-02-15T09:20:29;34.25;;;28.98;;
66264;SDS011;53055;44.648;21.148;2023-02-15T09:22:55;50.35;;;44.25;;
66264;SDS011;53055;44.648;21.148;2023-02-15T09:25:21;57.17;;;49.88;;
66264;SDS011;53055;44.648;21.148;2023-02-15T09:27:47;118.38;;;96.18;;
66264;SDS011;53055;44.648;21.148;2023-02-15T09:30:13;55.78;;;47.75;;
66264;SDS011;53055;44.648;21.148;2023-02-15T09:32:39;70.90;;;59.13;;
66264;SDS011;53055;44.648;21.148;2023-02-15T09:35:05;35.65;;;31.55;;
66264;SDS011;53055;44.648;21.148;2023-02-15T09:37:32;52.08;;;46.72;;
66264;SDS011;53055;44.648;21.148;2023-02-15T09:39:58;39.65;;;35.35;;
66264;SDS011;53055;44.648;21.148;2023-02-15T09:42:42;35.22;;;30.85;;
66264;SDS011;53055;44.648;21.148;2023-02-15T09:50:21;34.60;;;30.90;;
66264;SDS011;53055;44.648;21.148;2023-02-15T09:53:08;35.13;;;31.00;;
66264;SDS011;53055;44.648;21.148;2023-02-15T10:27:36;29.70;;;26.52;;
66264;SDS011;53055;44.648;21.148;2023-02-15T10:30:12;29.67;;;25.83;;
66264;SDS011;53055;44.648;21.148;2023-02-15T10:33:21;29.92;;;24.75;;
66264;SDS011;53055;44.648;21.148;2023-02-15T10:35:32;26.95;;;24.13;;
66264;SDS011;53055;44.648;21.148;2023-02-15T10:46:02;25.80;;;21.75;;
66264;SDS011;53055;44.648;21.148;2023-02-15T10:55:55;21.05;;;18.75;;
66264;SDS011;53055;44.648;21.148;2023-02-15T11:01:13;25.08;;;20.45;;
66264;SDS011;53055;44.648;21.148;2023-02-15T11:06:08;21.08;;;18.77;;
66264;SDS011;53055;44.648;21.148;2023-02-15T11:08:38;23.65;;;20.85;;
66264;SDS011;53055;44.648;21.148;2023-02-15T11:11:07;19.83;;;17.65;;
66264;SDS011;53055;44.648;21.148;2023-02-15T11:13:35;20.50;;;18.27;;
66264;SDS011;53055;44.648;21.148;2023-02-15T11:21:16;19.83;;;17.58;;
66264;SDS011;53055;44.648;21.148;2023-02-15T11:23:44;17.23;;;15.40;;
66264;SDS011;53055;44.648;21.148;2023-02-15T11:26:15;19.60;;;16.63;;
66264;SDS011;53055;44.648;21.148;2023-02-15T11:31:19;19.60;;;17.48;;
66264;SDS011;53055;44.648;21.148;2023-02-15T11:33:47;19.02;;;16.48;;
66264;SDS011;53055;44.648;21.148;2023-02-15T11:36:33;18.38;;;16.27;;
66264;SDS011;53055;44.648;21.148;2023-02-15T11:39:08;18.33;;;16.33;;
66264;SDS011;53055;44.648;21.148;2023-02-15T11:41:37;20.35;;;17.23;;
66264;SDS011;53055;44.648;21.148;2023-02-15T11:46:33;18.88;;;15.60;;
66264;SDS011;53055;44.648;21.148;2023-02-15T11:48:59;54.85;;;36.15;;
66264;SDS011;53055;44.648;21.148;2023-02-15T11:51:25;19.65;;;16.63;;
66264;SDS011;53055;44.648;21.148;2023-02-15T11:53:53;25.13;;;20.23;;
66264;SDS011;53055;44.648;21.148;2023-02-15T11:56:21;19.60;;;17.35;;
66264;SDS011;53055;44.648;21.148;2023-02-15T12:04:06;29.27;;;25.52;;
66264;SDS011;53055;44.648;21.148;2023-02-15T12:06:45;22.98;;;20.48;;
66264;SDS011;53055;44.648;21.148;2023-02-15T12:11:42;21.73;;;19.42;;
66264;SDS011;53055;44.648;21.148;2023-02-15T12:14:08;18.25;;;15.40;;
66264;SDS011;53055;44.648;21.148;2023-02-15T12:16:41;18.58;;;16.40;;
66264;SDS011;53055;44.648;21.148;2023-02-15T12:19:12;18.80;;;16.02;;
66264;SDS011;53055;44.648;21.148;2023-02-15T12:21:39;18.00;;;16.10;;
66264;SDS011;53055;44.648;21.148;2023-02-15T12:24:15;30.83;;;25.90;;
66264;SDS011;53055;44.648;21.148;2023-02-15T12:26:43;34.45;;;26.80;;
66264;SDS011;53055;44.648;21.148;2023-02-15T12:29:15;31.98;;;26.67;;
66264;SDS011;53055;44.648;21.148;2023-02-15T12:31:43;41.65;;;30.30;;
66264;SDS011;53055;44.648;21.148;2023-02-15T12:34:21;21.85;;;18.60;;
66264;SDS011;53055;44.648;21.148;2023-02-15T12:36:49;24.77;;;20.77;;
66264;SDS011;53055;44.648;21.148;2023-02-15T12:41:46;21.83;;;17.65;;
66264;SDS011;53055;44.648;21.148;2023-02-15T12:47:04;36.13;;;28.95;;
66264;SDS011;53055;44.648;21.148;2023-02-15T12:49:32;56.92;;;45.33;;
66264;SDS011;53055;44.648;21.148;2023-02-15T12:51:59;54.10;;;43.03;;
66264;SDS011;53055;44.648;21.148;2023-02-15T12:54:28;100.88;;;72.65;;
66264;SDS011;53055;44.648;21.148;2023-02-15T12:56:55;76.60;;;53.97;;
66264;SDS011;53055;44.648;21.148;2023-02-15T12:59:24;17.73;;;15.82;;
66264;SDS011;53055;44.648;21.148;2023-02-15T13:01:51;17.85;;;15.90;;
66264;SDS011;53055;44.648;21.148;2023-02-15T13:04:23;21.35;;;18.40;;
66264;SDS011;53055;44.648;21.148;2023-02-15T13:06:51;40.10;;;30.83;;
66264;SDS011;53055;44.648;21.148;2023-02-15T13:09:19;38.40;;;28.75;;
66264;SDS011;53055;44.648;21.148;2023-02-15T13:11:46;20.85;;;17.95;;
66264;SDS011;53055;44.648;21.148;2023-02-15T13:16:41;61.90;;;44.92;;
66264;SDS011;53055;44.648;21.148;2023-02-15T13:19:16;22.15;;;19.75;;
66264;SDS011;53055;44.648;21.148;2023-02-15T13:21:44;18.55;;;16.20;;
66264;SDS011;53055;44.648;21.148;2023-02-15T13:24:24;20.50;;;17.42;;
66264;SDS011;53055;44.648;21.148;2023-02-15T13:26:51;19.35;;;17.15;;
66264;SDS011;53055;44.648;21.148;2023-02-15T13:29:21;18.77;;;16.77;;
66264;SDS011;53055;44.648;21.148;2023-02-15T13:31:48;18.42;;;16.52;;
66264;SDS011;53055;44.648;21.148;2023-02-15T13:34:20;19.63;;;17.05;;
66264;SDS011;53055;44.648;21.148;2023-02-15T13:37:00;19.25;;;16.40;;
66264;SDS011;53055;44.648;21.148;2023-02-15T13:42:05;18.70;;;16.10;;
66264;SDS011;53055;44.648;21.148;2023-02-15T13:49:46;20.20;;;17.48;;
66264;SDS011;53055;44.648;21.148;2023-02-15T13:52:23;19.15;;;16.83;;
66264;SDS011;53055;44.648;21.148;2023-02-15T14:23:40;18.00;;;16.00;;
66264;SDS011;53055;44.648;21.148;2023-02-15T14:25:40;21.45;;;18.83;;
66264;SDS011;53055;44.648;21.148;2023-02-15T14:30:36;47.55;;;38.80;;
66264;SDS011;53055;44.648;21.148;2023-02-15T14:35:44;18.35;;;15.85;;
66264;SDS011;53055;44.648;21.148;2023-02-15T14:40:54;17.42;;;15.63;;
66264;SDS011;53055;44.648;21.148;2023-02-15T14:48:53;21.20;;;17.45;;
66264;SDS011;53055;44.648;21.148;2023-02-15T15:02:13;71.75;;;51.08;;
66264;SDS011;53055;44.648;21.148;2023-02-15T15:12:48;88.82;;;78.45;;
66264;SDS011;53055;44.648;21.148;2023-02-15T15:18:00;60.92;;;47.47;;
66264;SDS011;53055;44.648;21.148;2023-02-15T15:28:05;44.33;;;34.65;;
66264;SDS011;53055;44.648;21.148;2023-02-15T15:35:27;93.32;;;68.35;;
66264;SDS011;53055;44.648;21.148;2023-02-15T15:48:34;88.22;;;73.32;;
66264;SDS011;53055;44.648;21.148;2023-02-15T15:51:23;64.97;;;53.60;;
66264;SDS011;53055;44.648;21.148;2023-02-15T15:53:51;26.30;;;23.50;;
66264;SDS011;53055;44.648;21.148;2023-02-15T15:56:22;30.42;;;26.55;;
66264;SDS011;53055;44.648;21.148;2023-02-15T15:58:51;35.83;;;30.10;;
66264;SDS011;53055;44.648;21.148;2023-02-15T16:01:23;30.02;;;26.83;;
66264;SDS011;53055;44.648;21.148;2023-02-15T16:03:50;36.03;;;28.98;;
66264;SDS011;53055;44.648;21.148;2023-02-15T16:06:36;29.13;;;25.02;;
66264;SDS011;53055;44.648;21.148;2023-02-15T16:09:36;64.65;;;42.80;;
66264;SDS011;53055;44.648;21.148;2023-02-15T16:11:58;76.70;;;58.20;;
66264;SDS011;53055;44.648;21.148;2023-02-15T16:14:37;74.88;;;59.28;;
66264;SDS011;53055;44.648;21.148;2023-02-15T16:17:05;69.10;;;56.22;;
66264;SDS011;53055;44.648;21.148;2023-02-15T16:19:35;52.15;;;43.75;;
66264;SDS011;53055;44.648;21.148;2023-02-15T16:22:02;36.40;;;31.58;;
66264;SDS011;53055;44.648;21.148;2023-02-15T16:24:37;36.35;;;32.40;;
66264;SDS011;53055;44.648;21.148;2023-02-15T16:29:36;38.17;;;33.70;;
66264;SDS011;53055;44.648;21.148;2023-02-15T16:32:14;35.20;;;30.65;;
66264;SDS011;53055;44.648;21.148;2023-02-15T16:37:36;40.72;;;36.33;;
66264;SDS011;53055;44.648;21.148;2023-02-15T16:40:02;35.20;;;31.50;;
66264;SDS011;53055;44.648;21.148;2023-02-15T16:42:28;35.50;;;31.70;;
66264;SDS011;53055;44.648;21.148;2023-02-15T16:45:00;32.17;;;28.73;;
66264;SDS011;53055;44.648;21.148;2023-02-15T16:47:28;33.28;;;29.73;;
66264;SDS011;53055;44.648;21.148;2023-02-15T16:49:57;32.08;;;28.48;;
66264;SDS011;53055;44.648;21.148;2023-02-15T16:52:25;36.63;;;32.70;;
66264;SDS011;53055;44.648;21.148;2023-02-15T16:54:55;40.60;;;35.35;;
66264;SDS011;53055;44.648;21.148;2023-02-15T16:57:23;44.40;;;36.80;;
66264;SDS011;53055;44.648;21.148;2023-02-15T16:59:51;40.10;;;32.10;;
66264;SDS011;53055;44.648;21.148;2023-02-15T17:02:18;30.15;;;26.23;;
66264;SDS011;53055;44.648;21.148;2023-02-15T17:04:45;38.65;;;30.05;;
66264;SDS011;53055;44.648;21.148;2023-02-15T17:07:25;42.05;;;35.08;;
66264;SDS011;53055;44.648;21.148;2023-02-15T17:09:52;45.45;;;37.72;;
66264;SDS011;53055;44.648;21.148;2023-02-15T17:15:36;50.88;;;42.08;;
66264;SDS011;53055;44.648;21.148;2023-02-15T17:18:12;38.25;;;33.30;;
66264;SDS011;53055;44.648;21.148;2023-02-15T17:20:40;47.58;;;39.92;;
66264;SDS011;53055;44.648;21.148;2023-02-15T17:23:20;33.95;;;30.20;;
66264;SDS011;53055;44.648;21.148;2023-02-15T17:25:47;39.72;;;35.05;;
66264;SDS011;53055;44.648;21.148;2023-02-15T17:28:20;38.75;;;33.88;;
66264;SDS011;53055;44.648;21.148;2023-02-15T17:30:46;38.35;;;34.20;;
66264;SDS011;53055;44.648;21.148;2023-02-15T17:33:24;40.47;;;34.13;;
66264;SDS011;53055;44.648;21.148;2023-02-15T17:38:29;39.30;;;34.92;;
66264;SDS011;53055;44.648;21.148;2023-02-15T17:40:55;42.50;;;37.88;;
66264;SDS011;53055;44.648;21.148;2023-02-15T17:43:23;46.33;;;40.95;;
66264;SDS011;53055;44.648;21.148;2023-02-15T17:45:49;45.38;;;38.38;;
66264;SDS011;53055;44.648;21.148;2023-02-15T17:48:49;44.30;;;39.25;;
66264;SDS011;53055;44.648;21.148;2023-02-15T17:51:11;42.65;;;37.95;;
66264;SDS011;53055;44.648;21.148;2023-02-15T17:53:37;45.55;;;40.65;;
66264;SDS011;53055;44.648;21.148;2023-02-15T17:56:03;60.45;;;47.72;;
66264;SDS011;53055;44.648;21.148;2023-02-15T17:58:35;82.68;;;68.07;;
66264;SDS011;53055;44.648;21.148;2023-02-15T18:01:03;72.05;;;61.97;;
66264;SDS011;53055;44.648;21.148;2023-02-15T18:03:50;62.05;;;54.38;;
66264;SDS011;53055;44.648;21.148;2023-02-15T18:06:35;52.25;;;46.30;;
66264;SDS011;53055;44.648;21.148;2023-02-15T18:09:21;46.35;;;40.50;;